Time;durP1;ratioP1;P1;durP2;ratioP2;P2;SDS_P1;SDS_P2;PMS_P1;PMS_P2;Temp;Humidity;BMP_temperature;BMP_pressure;BME280_temperature;BME280_humidity;BME280_pressure;Samples;Min_cycle;Max_cycle;Signal;HPM_P1;HPM_P2
2022/07/21 00:01:52;;;;;;;6.00;4.00;;;;;;;21.73;55.42;96893.45;1737989;82;20917;-88
2022/07/21 00:04:18;;;;;;;5.15;3.90;;;;;;;21.66;55.73;96888.06;1739473;81;21015;-87
2022/07/21 00:06:44;;;;;;;5.53;4.50;;;;;;;21.58;55.97;96889.23;1738127;81;21010;-86
2022/07/21 00:09:12;;;;;;;5.65;3.83;;;;;;;21.51;55.47;96888.59;1737821;81;21309;-87
2022/07/21 00:11:38;;;;;;;4.87;3.27;;;;;;;21.45;56.16;96891.66;1751746;81;21023;-87
2022/07/21 00:14:05;;;;;;;5.10;4.12;;;;;;;21.39;56.27;96892.62;1763644;81;20959;-87
2022/07/21 00:16:31;;;;;;;4.83;3.70;;;;;;;21.35;56.32;96891.50;1751130;81;20967;-88
2022/07/21 00:18:59;;;;;;;6.28;4.22;;;;;;;21.31;56.43;96886.90;1747149;81;20944;-88
2022/07/21 00:21:27;;;;;;;5.45;3.90;;;;;;;21.23;56.23;96882.27;1697835;84;20970;-88
2022/07/21 00:23:52;;;;;;;5.90;4.15;;;;;;;21.23;56.02;96885.42;1698486;84;20950;-88
2022/07/21 00:26:18;;;;;;;5.37;3.87;;;;;;;21.18;55.66;96886.14;1706947;84;21027;-88
2022/07/21 00:28:44;;;;;;;5.70;3.72;;;;;;;21.15;55.55;96885.79;1674120;85;21000;-87
2022/07/21 00:31:09;;;;;;;5.33;4.15;;;;;;;21.09;55.42;96890.70;1692465;84;21381;-87
2022/07/21 00:33:35;;;;;;;6.92;4.12;;;;;;;21.05;55.45;96886.42;1697628;84;21042;-87
2022/07/21 00:36:01;;;;;;;4.60;3.75;;;;;;;21.02;56.21;96890.05;1697707;84;21049;-87
2022/07/21 00:38:27;;;;;;;5.97;4.17;;;;;;;20.97;56.94;96886.77;1697532;84;20975;-87
2022/07/21 00:40:53;;;;;;;4.25;3.62;;;;;;;20.93;56.84;96889.61;1703954;84;21000;-87
2022/07/21 00:43:19;;;;;;;4.67;4.00;;;;;;;20.89;56.90;96890.60;1700768;84;21026;-88
2022/07/21 00:45:45;;;;;;;5.72;3.83;;;;;;;20.84;56.92;96893.67;1698439;84;21001;-88
2022/07/21 00:48:12;;;;;;;6.10;4.22;;;;;;;20.76;57.04;96889.55;1698107;84;20959;-88
2022/07/21 00:50:38;;;;;;;5.28;4.12;;;;;;;20.70;57.03;96886.53;1698256;84;21022;-88
2022/07/21 00:53:04;;;;;;;5.53;3.92;;;;;;;20.65;57.33;96894.33;1698312;84;21042;-88
2022/07/21 00:55:29;;;;;;;6.25;3.85;;;;;;;20.60;56.85;96883.67;1698323;84;21031;-88
2022/07/21 00:57:55;;;;;;;8.88;4.25;;;;;;;20.56;57.68;96888.61;1698489;84;21012;-88
2022/07/21 01:00:25;;;;;;;6.05;4.15;;;;;;;20.52;57.74;96886.16;1698350;84;20991;-88
2022/07/21 01:02:51;;;;;;;5.08;3.95;;;;;;;20.49;57.82;96889.76;1697297;84;21046;-88
2022/07/21 01:05:18;;;;;;;4.58;4.00;;;;;;;20.45;58.06;96884.66;1687143;84;21066;-87
2022/07/21 01:07:47;;;;;;;4.85;3.70;;;;;;;20.42;58.30;96885.13;1748789;82;20932;-86
2022/07/21 01:10:13;;;;;;;4.60;3.80;;;;;;;20.38;58.45;96886.09;1734831;82;20940;-88
2022/07/21 01:12:41;;;;;;;6.87;3.87;;;;;;;20.34;58.41;96887.08;1749169;82;21405;-87
2022/07/21 01:15:08;;;;;;;6.83;3.67;;;;;;;20.30;58.50;96887.23;1741679;82;21079;-88
2022/07/21 01:17:33;;;;;;;6.67;4.42;;;;;;;20.25;58.24;96883.17;1754683;81;20963;-86
2022/07/21 01:20:05;;;;;;;4.53;3.80;;;;;;;20.22;58.40;96880.99;1754626;81;21014;-87
2022/07/21 01:22:32;;;;;;;6.87;4.03;;;;;;;20.17;58.54;96882.18;1755460;82;20971;-87
2022/07/21 01:24:58;;;;;;;5.45;4.40;;;;;;;20.13;58.73;96882.88;1750516;82;20972;-88
2022/07/21 01:27:26;;;;;;;4.67;3.92;;;;;;;20.10;58.81;96881.51;1662524;85;20960;-88
2022/07/21 01:29:51;;;;;;;5.70;3.67;;;;;;;20.08;58.98;96886.21;1636409;85;21034;-87
2022/07/21 01:32:17;;;;;;;5.53;3.70;;;;;;;20.06;59.18;96881.17;1682172;84;21415;-88
2022/07/21 01:34:43;;;;;;;6.25;4.40;;;;;;;20.05;59.20;96878.77;1755234;82;21103;-88
2022/07/21 01:37:08;;;;;;;6.85;3.98;;;;;;;20.03;59.45;96875.55;1755142;81;20955;-88
2022/07/21 01:42:19;;;;;;;6.00;3.92;;;;;;;20.00;59.95;96879.42;1713835;82;20961;-87
2022/07/21 01:44:45;;;;;;;6.85;3.98;;;;;;;20.00;59.83;96886.02;1755185;81;21350;-87
2022/07/21 01:47:10;;;;;;;4.42;3.98;;;;;;;20.00;59.50;96887.86;1746317;81;21001;-87
2022/07/21 01:49:36;;;;;;;6.00;3.98;;;;;;;20.01;59.50;96886.83;1729206;82;21051;-86
2022/07/21 01:52:02;;;;;;;6.20;3.92;;;;;;;20.00;59.23;96879.94;1753015;82;20939;-86
2022/07/21 01:54:29;;;;;;;5.55;4.25;;;;;;;19.99;59.18;96880.46;1725409;82;21233;-88
2022/07/21 01:56:55;;;;;;;6.30;3.72;;;;;;;19.99;60.05;96887.05;1754687;82;21337;-89
2022/07/21 01:59:20;;;;;;;4.55;3.85;;;;;;;19.99;60.80;96878.34;1749004;81;20925;-88
2022/07/21 02:01:46;;;;;;;5.55;3.90;;;;;;;19.97;60.72;96874.62;1659665;85;20998;-88
2022/07/21 02:04:12;;;;;;;5.85;3.70;;;;;;;19.96;60.64;96869.57;1726790;82;20988;-86
2022/07/21 02:06:38;;;;;;;7.05;4.00;;;;;;;19.95;60.62;96864.02;1738597;83;21011;-89
2022/07/21 02:09:04;;;;;;;4.10;3.70;;;;;;;19.92;60.72;96856.05;1737946;82;20964;-88
2022/07/21 02:11:30;;;;;;;4.40;3.45;;;;;;;19.90;60.50;96862.07;1738238;82;20995;-88
2022/07/21 02:13:56;;;;;;;5.33;3.72;;;;;;;19.90;60.01;96856.80;1710440;83;21068;-88
2022/07/21 02:16:21;;;;;;;4.85;3.95;;;;;;;19.89;59.88;96854.39;1742439;82;21071;-88
2022/07/21 02:18:47;;;;;;;4.55;4.08;;;;;;;19.88;59.84;96859.38;1716915;82;20944;-88
2022/07/21 02:21:13;;;;;;;5.97;4.08;;;;;;;19.87;60.46;96864.37;1751055;82;21342;-88
2022/07/21 02:23:38;;;;;;;5.03;3.80;;;;;;;19.87;60.47;96863.05;1738550;82;20964;-88
2022/07/21 02:26:04;;;;;;;4.97;3.90;;;;;;;19.85;60.22;96868.55;1729708;83;20980;-87
2022/07/21 02:28:30;;;;;;;5.72;4.55;;;;;;;19.84;60.29;96861.64;1737596;82;20955;-86
2022/07/21 02:30:56;;;;;;;5.78;3.52;;;;;;;19.84;60.03;96860.84;1737696;82;21063;-86
2022/07/21 02:33:22;;;;;;;6.55;4.17;;;;;;;19.82;59.77;96857.12;1738300;82;21011;-86
2022/07/21 02:35:48;;;;;;;6.75;3.90;;;;;;;19.81;59.57;96852.08;1732507;82;21130;-87
2022/07/21 02:38:14;;;;;;;5.12;3.80;;;;;;;19.77;59.50;96853.86;1735892;82;21050;-88
2022/07/21 02:40:40;;;;;;;8.00;3.87;;;;;;;19.76;59.69;96842.22;1745424;82;20975;-87
2022/07/21 02:43:06;;;;;;;6.50;4.05;;;;;;;19.74;60.41;96843.77;1735255;81;21386;-88
2022/07/21 02:45:32;;;;;;;4.17;3.58;;;;;;;19.72;60.73;96840.56;1750436;82;21357;-87
2022/07/21 02:48:04;;;;;;;4.65;3.70;;;;;;;19.70;60.92;96839.99;1730820;82;20984;-88
2022/07/21 02:50:35;;;;;;;6.75;3.85;;;;;;;19.69;60.55;96843.66;1750235;82;20952;-87
2022/07/21 02:53:04;;;;;;;3.87;3.42;;;;;;;19.69;60.53;96842.34;1737628;82;20963;-86
2022/07/21 02:55:30;;;;;;;6.30;4.37;;;;;;;19.70;60.40;96839.19;1753063;82;20968;-89
2022/07/21 02:58:08;;;;;;;4.05;3.58;;;;;;;19.71;60.45;96841.59;1756266;81;20944;-86
2022/07/21 03:00:36;;;;;;;5.05;3.95;;;;;;;19.70;60.12;96838.67;1731596;81;20956;-86
2022/07/21 03:03:03;;;;;;;5.22;3.75;;;;;;;19.70;59.95;96843.14;1689036;84;21368;-87
2022/07/21 03:05:30;;;;;;;5.60;3.80;;;;;;;19.69;60.02;96835.75;1686853;83;21454;-86
2022/07/21 03:07:55;;;;;;;4.70;4.30;;;;;;;19.70;60.23;96845.27;1688893;84;21013;-87
2022/07/21 03:10:21;;;;;;;4.28;3.52;;;;;;;19.71;60.07;96846.06;1705201;84;20985;-86
2022/07/21 03:12:48;;;;;;;4.08;3.65;;;;;;;19.70;59.83;96847.91;1689190;84;21123;-88
2022/07/21 03:15:14;;;;;;;5.28;3.77;;;;;;;19.70;60.08;96851.86;1685152;85;21076;-88
2022/07/21 03:17:40;;;;;;;4.62;3.65;;;;;;;19.70;60.53;96853.17;1673295;84;20978;-88
2022/07/21 03:20:06;;;;;;;5.83;3.80;;;;;;;19.71;60.78;96850.02;1687432;84;21416;-88
2022/07/21 03:22:32;;;;;;;5.70;3.85;;;;;;;19.69;60.97;96850.77;1687773;84;21079;-86
2022/07/21 03:24:58;;;;;;;4.92;3.85;;;;;;;19.69;61.35;96852.09;1729588;82;20924;-86
2022/07/21 03:27:24;;;;;;;4.78;3.62;;;;;;;19.69;61.13;96850.25;1745404;82;20957;-87
2022/07/21 03:29:49;;;;;;;5.25;4.10;;;;;;;19.68;61.33;96845.98;1737293;82;20995;-88
2022/07/21 03:32:15;;;;;;;4.75;3.92;;;;;;;19.67;61.34;96843.58;1754677;81;20908;-86
2022/07/21 03:34:41;;;;;;;6.53;3.87;;;;;;;19.66;61.39;96849.37;1754927;82;20984;-88
2022/07/21 03:37:06;;;;;;;5.85;3.90;;;;;;;19.66;61.39;96849.88;1743537;81;20993;-85
2022/07/21 03:39:32;;;;;;;4.28;3.72;;;;;;;19.66;61.42;96845.41;1729054;82;20959;-86
2022/07/21 03:41:58;;;;;;;6.53;3.75;;;;;;;19.67;61.17;96840.42;1749453;82;20967;-87
2022/07/21 03:44:24;;;;;;;5.20;3.60;;;;;;;19.69;61.51;96841.02;1746141;82;20967;-86
2022/07/21 03:46:50;;;;;;;4.08;3.40;;;;;;;19.72;62.10;96838.45;1740800;81;21394;-86
2022/07/21 03:49:15;;;;;;;4.08;3.42;;;;;;;19.73;62.14;96839.53;1755356;81;20939;-87
2022/07/21 03:51:41;;;;;;;4.42;3.77;;;;;;;19.74;62.06;96843.77;1754396;81;22004;-86
2022/07/21 03:54:07;;;;;;;4.92;3.60;;;;;;;19.76;62.21;96852.77;1732173;82;21003;-86
2022/07/21 03:56:32;;;;;;;3.60;3.25;;;;;;;19.74;62.47;96844.29;1756103;81;20943;-88
2022/07/21 03:58:58;;;;;;;4.12;3.45;;;;;;;19.73;62.70;96844.00;1754558;81;21433;-87
2022/07/21 04:01:25;;;;;;;4.72;3.70;;;;;;;19.70;62.91;96841.31;1731526;82;21023;-87
2022/07/21 04:03:50;;;;;;;4.75;3.00;;;;;;;19.69;62.87;96836.27;1756022;81;21403;-87
2022/07/21 04:06:18;;;;;;;4.60;3.22;;;;;;;19.68;62.93;96835.95;1746961;81;20959;-86
2022/07/21 04:08:44;;;;;;;4.45;3.27;;;;;;;19.67;63.08;96831.71;1750166;81;20944;-88
2022/07/21 04:11:10;;;;;;;3.72;3.12;;;;;;;19.67;63.18;96831.20;1734138;81;21038;-87
2022/07/21 04:13:37;;;;;;;4.40;3.58;;;;;;;19.68;63.22;96835.44;1684957;84;21362;-86
2022/07/21 04:16:03;;;;;;;3.87;3.33;;;;;;;19.69;63.34;96837.59;1672835;84;21089;-86
2022/07/21 04:18:29;;;;;;;4.30;3.65;;;;;;;19.69;63.28;96836.27;1693204;85;21344;-86
2022/07/21 04:20:55;;;;;;;5.05;3.50;;;;;;;19.69;63.65;96846.81;1692431;84;21058;-86
2022/07/21 04:23:20;;;;;;;5.47;3.60;;;;;;;19.68;63.60;96853.09;1692403;84;20999;-86
2022/07/21 04:25:47;;;;;;;4.22;3.62;;;;;;;19.64;63.66;96854.06;1692262;85;21055;-86
2022/07/21 04:28:12;;;;;;;4.08;3.45;;;;;;;19.64;63.74;96857.22;1692316;84;21389;-85
2022/07/21 04:30:38;;;;;;;3.83;3.47;;;;;;;19.63;63.88;96855.09;1692364;84;21002;-86
2022/07/21 04:33:04;;;;;;;3.90;3.20;;;;;;;19.64;64.17;96854.06;1692261;84;20950;-86
2022/07/21 04:35:30;;;;;;;4.15;3.35;;;;;;;19.66;64.24;96852.52;1660296;85;21156;-86
2022/07/21 04:37:56;;;;;;;3.55;3.25;;;;;;;19.69;64.55;96850.77;1643243;85;20964;-86
2022/07/21 04:40:22;;;;;;;4.45;3.40;;;;;;;19.71;64.41;96848.19;1687300;84;20937;-86
2022/07/21 04:42:47;;;;;;;5.85;3.05;;;;;;;19.74;64.43;96846.92;1690257;84;20956;-86
2022/07/21 04:45:14;;;;;;;5.00;3.47;;;;;;;19.76;64.93;96850.94;1690985;85;20972;-87
2022/07/21 04:47:52;;;;;;;4.67;3.50;;;;;;;19.79;65.20;96850.98;1690973;85;21024;-86
2022/07/21 04:50:20;;;;;;;5.67;3.95;;;;;;;19.81;65.67;96852.08;1690562;85;21004;-86
2022/07/21 04:52:46;;;;;;;4.45;3.30;;;;;;;19.80;65.29;96855.23;1707750;84;21023;-87
2022/07/21 04:55:12;;;;;;;3.77;3.22;;;;;;;19.80;65.25;96849.95;1705119;84;20944;-86
2022/07/21 04:57:39;;;;;;;4.00;3.60;;;;;;;19.84;64.99;96855.57;1693112;84;20945;-86
2022/07/21 05:00:08;;;;;;;4.37;3.00;;;;;;;19.85;65.23;96854.53;1696489;83;20999;-86
2022/07/21 05:02:34;;;;;;;5.30;3.33;;;;;;;19.86;65.49;96859.61;1658541;84;21100;-88
2022/07/21 05:05:01;;;;;;;4.25;3.08;;;;;;;19.87;65.48;96857.78;1679712;84;21115;-86
2022/07/21 05:07:27;;;;;;;3.98;3.00;;;;;;;19.88;65.55;96858.86;1668928;86;21040;-88
2022/07/21 05:09:53;;;;;;;3.67;2.70;;;;;;;19.91;65.62;96861.55;1642376;86;21419;-87
2022/07/21 05:12:19;;;;;;;3.33;2.65;;;;;;;19.92;65.68;96858.69;1662243;85;20987;-88
2022/07/21 05:14:45;;;;;;;5.17;2.50;;;;;;;19.96;65.27;96860.34;1645344;85;21057;-87
2022/07/21 05:17:11;;;;;;;2.90;2.42;;;;;;;20.00;64.97;96853.56;1666393;86;21044;-88
2022/07/21 05:19:37;;;;;;;4.20;2.75;;;;;;;20.02;65.03;96851.02;1666806;86;21334;-87
2022/07/21 05:22:03;;;;;;;3.95;2.58;;;;;;;20.05;65.08;96857.66;1666874;86;20988;-87
2022/07/21 05:24:30;;;;;;;3.30;2.98;;;;;;;20.07;65.41;96851.12;1672247;85;20961;-86
2022/07/21 05:26:55;;;;;;;4.03;2.98;;;;;;;20.10;66.03;96860.40;1714019;84;21381;-87
2022/07/21 05:29:21;;;;;;;4.35;2.98;;;;;;;20.15;66.12;96864.46;1703625;83;20978;-86
2022/07/21 05:31:48;;;;;;;4.80;2.72;;;;;;;20.19;66.26;96862.19;1703844;83;21024;-87
2022/07/21 05:34:14;;;;;;;5.03;3.08;;;;;;;20.24;66.40;96862.30;1714627;83;20974;-88
2022/07/21 05:36:39;;;;;;;3.05;2.50;;;;;;;20.29;66.41;96863.71;1714076;83;21011;-86
2022/07/21 05:39:05;;;;;;;3.20;2.90;;;;;;;20.34;66.54;96867.28;1715873;83;20974;-86
2022/07/21 05:41:31;;;;;;;3.83;2.55;;;;;;;20.37;66.60;96861.53;1713952;83;21275;-87
2022/07/21 05:43:57;;;;;;;4.30;2.72;;;;;;;20.41;66.56;96868.98;1715128;83;21280;-86
2022/07/21 05:46:22;;;;;;;3.47;2.80;;;;;;;20.44;66.63;96875.95;1713717;83;20920;-87
2022/07/21 05:48:48;;;;;;;3.25;2.65;;;;;;;20.48;66.85;96877.59;1716601;84;21015;-86
2022/07/21 05:51:14;;;;;;;4.35;3.27;;;;;;;20.50;66.96;96875.52;1714232;83;20908;-88
2022/07/21 05:53:40;;;;;;;3.20;2.67;;;;;;;20.55;67.32;96874.33;1714387;83;20943;-87
2022/07/21 05:56:06;;;;;;;3.72;2.47;;;;;;;20.62;67.24;96878.95;1714210;83;21340;-86
2022/07/21 05:58:35;;;;;;;3.67;2.20;;;;;;;20.69;66.92;96879.64;1714767;83;21006;-88
2022/07/21 06:01:15;;;;;;;4.92;2.72;;;;;;;20.74;66.47;96882.89;1688584;83;21003;-88
2022/07/21 06:03:47;;;;;;;3.85;2.30;;;;;;;20.77;66.03;96888.50;1661341;85;21024;-89
2022/07/21 06:06:14;;;;;;;5.08;2.98;;;;;;;20.83;65.52;96886.27;1734542;82;20996;-87
2022/07/21 06:08:41;;;;;;;3.33;3.02;;;;;;;20.87;66.97;96888.72;1735516;83;20996;-86
2022/07/21 06:11:07;;;;;;;2.58;2.00;;;;;;;20.91;67.28;96891.17;1725295;82;20981;-88
2022/07/21 06:13:33;;;;;;;2.87;2.30;;;;;;;20.95;67.64;96890.98;1744549;82;20916;-88
2022/07/21 06:16:01;;;;;;;4.22;2.45;;;;;;;21.00;67.26;96895.58;1754106;82;21085;-88
2022/07/21 06:18:36;;;;;;;3.72;2.72;;;;;;;21.05;67.39;96893.54;1742862;82;20962;-87
2022/07/21 06:21:02;;;;;;;3.70;2.87;;;;;;;21.10;67.27;96895.75;1731259;82;20981;-88
2022/07/21 06:23:28;;;;;;;4.28;2.92;;;;;;;21.15;66.70;96895.87;1685701;84;20928;-88
2022/07/21 06:26:02;;;;;;;2.92;2.55;;;;;;;21.19;66.33;96889.59;1687089;84;21309;-88
2022/07/21 06:28:28;;;;;;;4.65;2.70;;;;;;;21.22;66.17;96895.20;1697816;84;20997;-87
2022/07/21 06:30:54;;;;;;;3.55;2.50;;;;;;;21.25;65.81;96889.98;1687699;84;21368;-89
2022/07/21 06:33:20;;;;;;;4.45;2.67;;;;;;;21.30;65.84;96902.48;1752089;82;20939;-88
2022/07/21 06:35:46;;;;;;;3.58;2.70;;;;;;;21.33;65.54;96898.86;1754891;81;21011;-88
2022/07/21 06:38:12;;;;;;;2.80;2.55;;;;;;;21.38;65.20;96894.17;1754861;81;20932;-88
2022/07/21 06:40:37;;;;;;;4.28;3.00;;;;;;;21.42;65.37;96889.49;1755019;81;21355;-88
2022/07/21 06:43:03;;;;;;;4.75;3.00;;;;;;;21.49;65.49;96894.65;1754732;81;20955;-88
2022/07/21 06:45:30;;;;;;;4.03;2.25;;;;;;;21.56;65.46;96897.41;1754488;81;20991;-88
2022/07/21 06:48:03;;;;;;;5.20;2.85;;;;;;;21.65;65.67;96903.64;1743245;81;20912;-86
2022/07/21 06:50:29;;;;;;;3.65;2.55;;;;;;;21.76;66.59;96906.72;1739019;82;21317;-86
2022/07/21 06:52:55;;;;;;;3.47;2.95;;;;;;;21.86;66.37;96910.34;1744887;82;20964;-86
2022/07/21 06:55:21;;;;;;;4.42;2.70;;;;;;;21.95;65.40;96905.95;1751334;82;20987;-88
2022/07/21 06:57:47;;;;;;;5.17;2.45;;;;;;;22.02;65.03;96902.64;1754579;82;20979;-88
2022/07/21 07:00:13;;;;;;;3.95;2.75;;;;;;;22.08;64.90;96905.14;1736286;81;21303;-87
2022/07/21 07:02:39;;;;;;;3.77;2.70;;;;;;;22.15;64.66;96903.16;1732619;82;20959;-88
2022/07/21 07:05:05;;;;;;;4.00;2.80;;;;;;;22.23;64.28;96895.83;1746293;81;21018;-87
2022/07/21 07:07:31;;;;;;;4.28;3.02;;;;;;;22.28;64.69;96899.34;1759224;81;20951;-86
2022/07/21 07:09:59;;;;;;;4.12;2.42;;;;;;;22.35;66.69;96902.64;1719886;81;20915;-88
2022/07/21 07:12:25;;;;;;;3.00;2.60;;;;;;;22.44;66.94;96907.78;1760227;81;20931;-87
2022/07/21 07:14:51;;;;;;;3.65;3.15;;;;;;;22.53;66.50;96909.50;1745736;81;20951;-86
2022/07/21 07:17:18;;;;;;;4.25;3.10;;;;;;;22.62;66.89;96909.37;1760334;81;20931;-89
2022/07/21 07:19:47;;;;;;;5.08;3.02;;;;;;;22.73;66.46;96911.08;1738281;81;20951;-87
2022/07/21 07:22:13;;;;;;;3.10;2.37;;;;;;;22.82;67.11;96908.02;1760327;81;21043;-87
2022/07/21 07:24:38;;;;;;;3.08;2.77;;;;;;;22.91;66.99;96902.05;1759223;81;20923;-87
2022/07/21 07:27:04;;;;;;;3.77;2.55;;;;;;;22.99;67.18;96896.86;1739901;81;21039;-87
2022/07/21 07:29:31;;;;;;;4.10;2.70;;;;;;;23.09;66.74;96895.62;1753927;81;21019;-88
2022/07/21 07:31:58;;;;;;;3.55;2.60;;;;;;;23.23;66.75;96903.47;1740080;81;21040;-89
2022/07/21 07:34:24;;;;;;;4.08;2.90;;;;;;;23.32;66.53;96901.98;1752890;81;20952;-88
2022/07/21 07:36:50;;;;;;;4.50;3.80;;;;;;;23.44;66.43;96906.34;1741633;81;21072;-88
2022/07/21 07:39:15;;;;;;;10.70;4.80;;;;;;;23.57;66.83;96908.60;1730231;82;21087;-86
2022/07/21 07:41:42;;;;;;;8.73;6.00;;;;;;;23.72;66.46;96907.94;1750684;81;21014;-86
2022/07/21 07:44:08;;;;;;;4.22;3.80;;;;;;;23.89;66.51;96902.78;1741044;82;21414;-87
2022/07/21 07:46:34;;;;;;;6.35;5.10;;;;;;;24.01;66.62;96897.83;1754796;81;20911;-88
2022/07/21 07:48:59;;;;;;;7.72;4.78;;;;;;;24.11;66.80;96904.55;1754966;81;20924;-86
2022/07/21 07:51:25;;;;;;;5.10;4.03;;;;;;;24.21;67.36;96900.09;1739894;81;20947;-87
2022/07/21 07:53:51;;;;;;;7.83;4.47;;;;;;;24.35;66.89;96898.36;1754322;81;20928;-86
2022/07/21 07:56:17;;;;;;;7.90;5.80;;;;;;;24.51;66.83;96900.04;1739930;81;20975;-86
2022/07/21 07:58:43;;;;;;;7.28;5.85;;;;;;;24.60;66.64;96900.36;1756322;81;21034;-87
2022/07/21 08:01:09;;;;;;;7.65;6.28;;;;;;;24.79;65.76;96890.87;1737488;81;21354;-88
2022/07/21 08:03:34;;;;;;;7.58;5.83;;;;;;;24.95;65.02;96882.44;1761021;81;20938;-89
2022/07/21 08:06:03;;;;;;;7.62;5.95;;;;;;;25.12;65.06;96885.17;1757567;81;21149;-88
2022/07/21 08:08:28;;;;;;;7.37;5.70;;;;;;;25.22;65.04;96889.73;1692333;85;21362;-86
2022/07/21 08:10:54;;;;;;;6.22;4.97;;;;;;;25.31;64.36;96886.81;1750985;81;20955;-88
2022/07/21 08:13:20;;;;;;;8.25;6.00;;;;;;;25.42;64.90;96887.64;1727829;82;20967;-87
2022/07/21 08:15:46;;;;;;;8.48;5.83;;;;;;;25.55;64.45;96885.00;1735305;81;20967;-87
2022/07/21 08:18:12;;;;;;;8.83;5.87;;;;;;;25.64;64.75;96882.86;1759691;81;20931;-86
2022/07/21 08:20:37;;;;;;;8.90;5.83;;;;;;;25.73;65.23;96885.30;1760946;81;21302;-86
2022/07/21 08:23:03;;;;;;;9.93;5.80;;;;;;;25.86;64.92;96883.16;1729984;81;20939;-89
2022/07/21 08:25:29;;;;;;;9.38;5.62;;;;;;;26.02;63.53;96885.54;1739954;81;20983;-88
2022/07/21 08:27:55;;;;;;;9.90;5.20;;;;;;;26.25;61.85;96893.52;1754946;81;21306;-88
2022/07/21 08:30:21;;;;;;;6.30;5.60;;;;;;;26.44;62.70;96890.31;1760409;81;20932;-88
2022/07/21 08:32:47;;;;;;;8.10;5.67;;;;;;;26.60;62.07;96893.19;1747411;81;20964;-87
2022/07/21 08:35:12;;;;;;;8.38;5.58;;;;;;;26.79;58.56;96892.85;1758992;81;20899;-88
2022/07/21 08:37:39;;;;;;;7.25;5.75;;;;;;;27.00;58.80;96892.76;1749899;81;21425;-87
2022/07/21 08:40:07;;;;;;;5.95;5.35;;;;;;;27.18;58.45;96888.19;1754372;81;20983;-88
2022/07/21 08:42:33;;;;;;;6.22;5.60;;;;;;;27.37;58.49;96893.14;1744412;81;21059;-87
2022/07/21 08:44:59;;;;;;;6.08;5.45;;;;;;;27.51;56.68;96896.78;1747611;81;20999;-88
2022/07/21 08:47:25;;;;;;;8.38;5.53;;;;;;;27.68;57.40;96897.77;1753982;81;21011;-87
2022/07/21 08:49:51;;;;;;;6.75;5.45;;;;;;;27.85;56.59;96900.58;1753482;81;20943;-87
2022/07/21 08:52:18;;;;;;;6.03;5.28;;;;;;;27.97;55.34;96903.12;1740469;81;20939;-86
2022/07/21 08:54:44;;;;;;;6.28;4.95;;;;;;;28.13;56.31;96897.64;1751551;81;20994;-89
2022/07/21 08:57:11;;;;;;;6.95;4.87;;;;;;;28.26;56.35;96902.36;1728084;82;21865;-88
2022/07/21 08:59:36;;;;;;;5.28;3.87;;;;;;;28.35;54.16;96900.14;1735824;81;20968;-88
2022/07/21 09:02:03;;;;;;;6.15;4.83;;;;;;;28.46;52.99;96900.02;1736679;81;21004;-88
2022/07/21 09:04:32;;;;;;;6.92;4.17;;;;;;;28.54;54.53;96898.87;1731786;81;21019;-87
2022/07/21 09:07:02;;;;;;;5.45;4.53;;;;;;;28.59;51.90;96896.13;1746308;82;20991;-87
2022/07/21 09:09:29;;;;;;;6.65;4.83;;;;;;;28.68;52.86;96903.00;1729617;82;21307;-88
2022/07/21 09:11:57;;;;;;;7.08;4.47;;;;;;;28.72;53.40;96902.68;1755313;82;21058;-86
2022/07/21 09:14:29;;;;;;;6.50;4.22;;;;;;;28.74;51.96;96901.05;1741834;82;21370;-87
2022/07/21 09:16:58;;;;;;;5.37;3.83;;;;;;;28.68;52.41;96907.81;1745660;82;20936;-87
2022/07/21 09:19:31;;;;;;;6.55;3.90;;;;;;;28.67;50.85;96902.20;1742718;82;20951;-88
2022/07/21 09:22:00;;;;;;;7.87;4.05;;;;;;;28.75;52.07;96905.32;1744491;82;20995;-88
2022/07/21 09:24:29;;;;;;;7.53;4.35;;;;;;;28.76;51.52;96902.91;1754914;82;20967;-89
2022/07/21 09:27:14;;;;;;;5.33;3.98;;;;;;;28.80;48.58;96901.24;1715813;82;20935;-88
2022/07/21 09:30:00;;;;;;;7.05;4.40;;;;;;;28.87;48.20;96904.41;1734446;81;20986;-88
2022/07/21 09:32:32;;;;;;;4.62;4.17;;;;;;;28.91;49.48;96907.56;1742080;82;21003;-88
2022/07/21 09:35:01;;;;;;;6.35;4.17;;;;;;;28.96;49.87;96908.03;1736179;81;21029;-88
2022/07/21 09:37:28;;;;;;;5.60;3.52;;;;;;;28.99;50.15;96908.81;1757563;82;21026;-88
2022/07/21 09:40:00;;;;;;;5.50;4.00;;;;;;;28.99;48.87;96903.47;1734684;81;21080;-87
2022/07/21 09:42:33;;;;;;;5.75;4.60;;;;;;;29.05;50.06;96902.84;1755185;82;20974;-87
2022/07/21 09:45:02;;;;;;;4.65;3.90;;;;;;;29.10;49.81;96897.42;1742830;81;20962;-86
2022/07/21 09:47:29;;;;;;;6.40;4.15;;;;;;;29.04;51.12;96896.70;1755261;82;20963;-88
2022/07/21 09:49:57;;;;;;;6.60;4.40;;;;;;;28.99;49.34;96894.90;1755523;82;20978;-86
2022/07/21 09:52:31;;;;;;;4.60;4.00;;;;;;;29.03;50.53;96891.10;1755499;82;20955;-88
2022/07/21 09:55:00;;;;;;;5.17;3.67;;;;;;;29.07;47.76;96888.64;1755337;81;21058;-87
2022/07/21 09:57:26;;;;;;;4.58;3.65;;;;;;;29.12;50.31;96885.34;1751527;82;21059;-87
2022/07/21 09:59:52;;;;;;;6.33;4.20;;;;;;;29.16;50.50;96885.05;1738620;82;20960;-88
2022/07/21 10:02:25;;;;;;;4.10;3.70;;;;;;;29.18;49.49;96876.19;1730155;82;21007;-89
2022/07/21 10:05:09;;;;;;;4.20;3.55;;;;;;;29.23;49.27;96867.28;1710189;82;20947;-89
2022/07/21 10:07:41;;;;;;;3.62;3.27;;;;;;;29.31;48.28;96868.53;1713349;82;21021;-89
2022/07/21 10:10:07;;;;;;;5.58;4.05;;;;;;;29.42;47.41;96865.94;1711581;82;20985;-87
2022/07/21 10:12:33;;;;;;;6.55;3.92;;;;;;;29.53;45.61;96870.09;1739383;82;20959;-87
2022/07/21 10:14:59;;;;;;;5.35;4.17;;;;;;;29.61;47.53;96864.06;1737109;82;21010;-88
2022/07/21 10:17:25;;;;;;;5.53;3.75;;;;;;;29.56;44.79;96864.14;1736509;82;21367;-88
2022/07/21 10:20:08;;;;;;;7.10;3.60;;;;;;;29.63;45.48;96864.59;1741441;82;20988;-87
2022/07/21 10:22:54;;;;;;;5.45;3.83;;;;;;;29.73;46.35;96869.77;1732617;82;21005;-89
2022/07/21 10:25:21;;;;;;;4.78;3.62;;;;;;;29.80;46.84;96865.39;1726150;83;20987;-88
2022/07/21 10:28:14;;;;;;;5.60;3.45;;;;;;;29.79;44.41;96869.16;1726512;82;21069;-89
2022/07/21 10:30:55;;;;;;;4.72;3.47;;;;;;;29.86;43.74;96857.50;1737372;82;20967;-88
2022/07/21 10:33:48;;;;;;;5.87;3.90;;;;;;;29.96;43.22;96867.27;1739707;82;21023;-88
2022/07/21 10:36:36;;;;;;;4.45;3.62;;;;;;;30.02;46.29;96864.73;1743540;82;21290;-87
2022/07/21 10:39:17;;;;;;;6.17;4.33;;;;;;;30.07;47.02;96861.45;1708133;82;21334;-87
2022/07/21 10:41:52;;;;;;;6.27;3.80;;;;;;;30.08;43.83;96866.26;1731575;82;20950;-89
2022/07/21 10:44:32;;;;;;;6.67;3.47;;;;;;;30.08;45.33;96871.07;1732820;83;21429;-89
2022/07/21 10:47:19;;;;;;;6.53;4.15;;;;;;;30.12;43.90;96878.00;1727836;82;21018;-88
2022/07/21 10:50:00;;;;;;;5.37;3.15;;;;;;;30.13;43.96;96861.63;1720390;82;21029;-89
2022/07/21 10:52:45;;;;;;;4.28;3.40;;;;;;;30.29;42.40;96870.73;1733460;82;20982;-88
2022/07/21 10:55:17;;;;;;;5.30;3.50;;;;;;;30.32;45.29;96873.61;1734297;82;21061;-87
2022/07/21 10:57:44;;;;;;;5.80;3.47;;;;;;;30.32;42.28;96868.25;1737074;82;21038;-88
2022/07/21 11:00:27;;;;;;;4.53;3.55;;;;;;;30.36;42.04;96867.89;1729960;82;21058;-88
2022/07/21 11:02:57;;;;;;;4.17;3.25;;;;;;;30.40;41.78;96866.20;1742879;82;20959;-88
2022/07/21 11:05:24;;;;;;;4.67;3.55;;;;;;;30.47;42.89;96863.14;1741476;81;21053;-88
2022/07/21 11:08:15;;;;;;;6.03;3.67;;;;;;;30.59;43.04;96867.98;1691674;81;20987;-86
2022/07/21 11:10:44;;;;;;;5.47;3.17;;;;;;;30.60;43.84;96868.27;1726865;83;20944;-88
2022/07/21 11:13:11;;;;;;;6.55;3.83;;;;;;;30.62;42.37;96859.41;1734661;82;21008;-87
2022/07/21 11:15:56;;;;;;;4.75;3.15;;;;;;;30.67;42.23;96856.61;1745989;82;20995;-88
2022/07/21 11:18:28;;;;;;;5.87;3.50;;;;;;;30.69;40.05;96859.78;1692664;83;21358;-87
2022/07/21 11:21:08;;;;;;;4.58;3.52;;;;;;;30.72;40.50;96860.52;1747443;82;21003;-86
2022/07/21 11:23:41;;;;;;;6.33;3.43;;;;;;;30.76;40.51;96852.94;1706351;82;20999;-88
2022/07/21 11:26:08;;;;;;;6.00;4.05;;;;;;;30.83;41.57;96849.84;1748355;82;21010;-87
2022/07/21 11:28:36;;;;;;;4.95;3.20;;;;;;;30.87;40.92;96850.81;1755383;82;20947;-88
2022/07/21 11:31:11;;;;;;;5.45;3.33;;;;;;;30.96;42.71;96850.38;1755761;81;20943;-89
2022/07/21 11:33:39;;;;;;;6.12;3.45;;;;;;;30.99;41.03;96850.31;1755179;82;21126;-89
2022/07/21 11:36:05;;;;;;;6.80;3.22;;;;;;;31.02;42.05;96848.36;1754529;82;21374;-88
2022/07/21 11:38:31;;;;;;;5.53;3.30;;;;;;;31.01;38.11;96851.59;1750692;81;21035;-86
2022/07/21 11:41:17;;;;;;;4.28;3.58;;;;;;;31.06;39.21;96838.05;1714345;83;21012;-88